Pagrindinis puslapis
METAR-TAF:

METAR-TAF

Oro uostai :

Clines Corners, Naujoji Meksika, Jungtinės Amerikos Valstijos

platuma: 35-00N, ilguma: 105-40W, Aukštis: 2160 m

Dabartinis oras

Ataskaita buvo paskelbta 56 minutes, ne 10:53 UTC
Vėjas 9 kt iš Rytų
Temperatūra 11°C
Drėgmė 50%
Slėgis 1031 hPa
Matomumas: 16.1 km
Giedras dangus

METAR: KCQC 291053Z AUTO 09009KT 10SM CLR 11/01 A3045 RMK AO2 SLP225 T01060011

Laikas: 05:49 (11:49 UTC)


TAF: trūkstamas

Orai ataskaitas ir orų prognozės (METAR, TAF).

turimą stotys yra geltonos ir raudonos taškus žemėlapyje.

Perkelti pele per norėdami pamatyti stoties vardą.

Tada spustelėkite, norėdami matyti oro stebėjimo ir prognozės.

Norėdami pakeisti žemėlapį: spustelėkite ant žalios mygtukų su juodo kryžiaus žemyn,; žalią mygtuką su brūkšneliu, jei norite nutolinti; arba žalių rodyklių gretimoms žemėlapius.


METAR-TAF: